Time;durP1;ratioP1;P1;durP2;ratioP2;P2;SDS_P1;SDS_P2;PMS_P1;PMS_P2;Temp;Humidity;BMP_temperature;BMP_pressure;BME280_temperature;BME280_humidity;BME280_pressure;Samples;Min_cycle;Max_cycle;Signal;HPM_P1;HPM_P2
2021/07/10 00:00:08;;;;;;;;;;;21.20;76.80;;;;;;4993570;28;1287;-67
2021/07/10 00:02:34;;;;;;;;;;;21.20;76.80;;;;;;4993411;28;1049;-67
2021/07/10 00:04:59;;;;;;;;;;;21.20;76.80;;;;;;4974827;28;1089;-65
2021/07/10 00:07:24;;;;;;;;;;;21.20;76.90;;;;;;4975099;28;1109;-67
2021/07/10 00:09:50;;;;;;;;;;;21.20;76.80;;;;;;4993064;28;1205;-66
2021/07/10 00:12:15;;;;;;;;;;;21.20;76.90;;;;;;4991508;28;1270;-66
2021/07/10 00:14:41;;;;;;;;;;;21.20;76.90;;;;;;4992840;28;1077;-66
2021/07/10 00:17:06;;;;;;;;;;;21.20;76.90;;;;;;4993042;28;1910;-67
2021/07/10 00:19:32;;;;;;;;;;;21.20;76.90;;;;;;4992574;28;1288;-66
2021/07/10 00:21:57;;;;;;;;;;;21.20;76.90;;;;;;4993198;28;1200;-67
2021/07/10 00:24:23;;;;;;;;;;;21.20;76.80;;;;;;4992353;28;1179;-68
2021/07/10 00:26:48;;;;;;;;;;;21.20;76.80;;;;;;4992055;28;1152;-66
2021/07/10 00:29:15;;;;;;;;;;;21.20;76.80;;;;;;4993491;28;1128;-67
2021/07/10 00:31:40;;;;;;;;;;;21.20;76.80;;;;;;4975222;28;1204;-67
2021/07/10 00:34:06;;;;;;;;;;;21.20;76.90;;;;;;4992366;28;1053;-67
2021/07/10 00:36:31;;;;;;;;;;;21.20;76.90;;;;;;4992888;28;1906;-67
2021/07/10 00:38:57;;;;;;;;;;;21.20;76.90;;;;;;4993154;28;1053;-66
2021/07/10 00:41:22;;;;;;;;;;;21.20;76.90;;;;;;4992577;28;1314;-67
2021/07/10 00:43:48;;;;;;;;;;;21.20;76.90;;;;;;4992703;28;1128;-67
2021/07/10 00:46:20;;;;;;;;;;;21.20;76.90;;;;;;4975046;28;1101;-67
2021/07/10 00:48:46;;;;;;;;;;;21.20;76.90;;;;;;4992886;28;1144;-67
2021/07/10 00:51:11;;;;;;;;;;;21.20;76.90;;;;;;4992590;28;1285;-66
2021/07/10 00:53:37;;;;;;;;;;;21.20;76.90;;;;;;4993081;28;1001;-68
2021/07/10 00:56:02;;;;;;;;;;;21.20;76.90;;;;;;4992516;28;1125;-67
2021/07/10 00:58:28;;;;;;;;;;;21.20;76.90;;;;;;4975135;28;1156;-65
2021/07/10 01:00:54;;;;;;;;;;;21.20;76.90;;;;;;4993739;28;1272;-67
2021/07/10 01:03:19;;;;;;;;;;;21.20;76.90;;;;;;4996526;28;1069;-66
2021/07/10 01:05:45;;;;;;;;;;;21.20;76.90;;;;;;4978732;28;1125;-67
2021/07/10 01:08:10;;;;;;;;;;;21.20;76.90;;;;;;4996905;28;1097;-67
2021/07/10 01:10:36;;;;;;;;;;;21.20;76.90;;;;;;4996380;28;1272;-66
2021/07/10 01:13:01;;;;;;;;;;;21.20;76.90;;;;;;4996238;28;1077;-67
2021/07/10 01:15:27;;;;;;;;;;;21.20;76.90;;;;;;4978737;28;1129;-67
2021/07/10 01:17:56;;;;;;;;;;;21.20;76.90;;;;;;4978796;28;1910;-67
2021/07/10 01:20:22;;;;;;;;;;;21.20;76.90;;;;;;4979379;28;1302;-67
2021/07/10 01:22:47;;;;;;;;;;;21.20;76.90;;;;;;4996220;28;1112;-67
2021/07/10 01:25:14;;;;;;;;;;;21.20;76.90;;;;;;4978558;28;1177;-67
2021/07/10 01:27:39;;;;;;;;;;;21.20;76.90;;;;;;4996422;28;1093;-67
2021/07/10 01:30:06;;;;;;;;;;;21.20;76.90;;;;;;4995684;28;1198;-67
2021/07/10 01:32:32;;;;;;;;;;;21.20;76.90;;;;;;4977939;28;1460;-66
2021/07/10 01:34:57;;;;;;;;;;;21.20;76.90;;;;;;4977470;28;1165;-66
2021/07/10 01:37:22;;;;;;;;;;;21.20;76.90;;;;;;4995533;28;1969;-67
2021/07/10 01:39:48;;;;;;;;;;;21.20;76.90;;;;;;4975703;28;1375;-67
2021/07/10 01:42:13;;;;;;;;;;;21.20;76.90;;;;;;4995589;28;1379;-66
2021/07/10 01:44:39;;;;;;;;;;;21.20;76.90;;;;;;4994364;28;1312;-67
2021/07/10 01:47:04;;;;;;;;;;;21.20;76.90;;;;;;4977515;28;1612;-67
2021/07/10 01:49:30;;;;;;;;;;;21.20;76.90;;;;;;4995843;28;1254;-66
2021/07/10 01:51:55;;;;;;;;;;;21.20;76.90;;;;;;4995458;28;1389;-66
2021/07/10 01:54:21;;;;;;;;;;;21.20;76.90;;;;;;4995354;28;1690;-66
2021/07/10 01:56:47;;;;;;;;;;;21.20;76.90;;;;;;5003875;28;1970;-67
2021/07/10 01:59:12;;;;;;;;;;;21.20;76.90;;;;;;5004677;28;1323;-67
2021/07/10 02:01:38;;;;;;;;;;;21.20;76.90;;;;;;5002272;28;1302;-66
2021/07/10 02:04:07;;;;;;;;;;;21.20;76.90;;;;;;5000325;28;1422;-66
2021/07/10 02:06:33;;;;;;;;;;;21.20;76.90;;;;;;5002661;28;1261;-66
2021/07/10 02:08:58;;;;;;;;;;;21.20;76.90;;;;;;5005585;28;1414;-66
2021/07/10 02:11:24;;;;;;;;;;;21.20;76.90;;;;;;5002099;28;1308;-66
2021/07/10 02:13:49;;;;;;;;;;;21.20;76.90;;;;;;5003777;28;1414;-66
2021/07/10 02:16:14;;;;;;;;;;;21.20;76.90;;;;;;5001930;28;1914;-66
2021/07/10 02:18:40;;;;;;;;;;;21.20;76.90;;;;;;5001791;28;1454;-67
2021/07/10 02:21:05;;;;;;;;;;;21.20;76.90;;;;;;5004251;28;1375;-66
2021/07/10 02:23:31;;;;;;;;;;;21.20;76.90;;;;;;5005359;28;1438;-66
2021/07/10 02:25:56;;;;;;;;;;;21.20;76.90;;;;;;4996297;28;1390;-67
2021/07/10 02:28:22;;;;;;;;;;;21.20;76.90;;;;;;4994424;28;1443;-67
2021/07/10 02:30:47;;;;;;;;;;;21.20;76.90;;;;;;4994226;28;1600;-67
2021/07/10 02:33:13;;;;;;;;;;;21.20;76.90;;;;;;4976817;28;1113;-67
2021/07/10 02:35:38;;;;;;;;;;;21.20;76.90;;;;;;4993777;28;1136;-66
2021/07/10 02:38:04;;;;;;;;;;;21.20;76.90;;;;;;4994153;28;1898;-67
2021/07/10 02:40:29;;;;;;;;;;;21.20;76.90;;;;;;4994418;28;1480;-66
2021/07/10 02:42:54;;;;;;;;;;;21.20;76.90;;;;;;4993832;28;1042;-67
2021/07/10 02:45:20;;;;;;;;;;;21.20;76.90;;;;;;4993943;28;1250;-66
2021/07/10 02:47:46;;;;;;;;;;;21.20;76.90;;;;;;4994419;28;1136;-67
2021/07/10 02:50:15;;;;;;;;;;;21.20;76.90;;;;;;4994690;28;1474;-67
2021/07/10 02:52:41;;;;;;;;;;;21.20;76.90;;;;;;4995017;28;1085;-67
2021/07/10 02:55:06;;;;;;;;;;;21.20;77.00;;;;;;4994500;28;1073;-66
2021/07/10 02:57:32;;;;;;;;;;;21.20;77.00;;;;;;4994508;28;1895;-66
2021/07/10 02:59:57;;;;;;;;;;;21.20;77.00;;;;;;4994121;28;1257;-67
2021/07/10 03:02:23;;;;;;;;;;;21.20;76.90;;;;;;4994448;28;1148;-67
2021/07/10 03:04:48;;;;;;;;;;;21.20;76.90;;;;;;4976331;28;1124;-66
2021/07/10 03:07:13;;;;;;;;;;;21.20;77.00;;;;;;4994700;28;1117;-67
2021/07/10 03:09:39;;;;;;;;;;;21.20;76.90;;;;;;4994411;28;1335;-67
2021/07/10 03:12:04;;;;;;;;;;;21.20;77.00;;;;;;5005014;23;3879;-73
2021/07/10 03:14:30;;;;;;;;;;;21.20;77.00;;;;;;4994644;28;1079;-73
2021/07/10 03:16:55;;;;;;;;;;;21.20;77.00;;;;;;5013832;28;1918;-73
2021/07/10 03:19:21;;;;;;;;;;;21.20;77.00;;;;;;5013912;28;1234;-73
2021/07/10 03:21:47;;;;;;;;;;;21.20;77.00;;;;;;4998665;28;1629;-73
2021/07/10 03:24:13;;;;;;;;;;;21.20;77.00;;;;;;4993165;28;1674;-73
2021/07/10 03:26:38;;;;;;;;;;;21.20;76.90;;;;;;4993993;28;1219;-73
2021/07/10 03:29:04;;;;;;;;;;;21.20;76.90;;;;;;4976873;28;1673;-73
2021/07/10 03:31:29;;;;;;;;;;;21.20;77.00;;;;;;4993710;28;1385;-73
2021/07/10 03:33:55;;;;;;;;;;;21.20;77.00;;;;;;4994301;28;1178;-73
2021/07/10 03:36:20;;;;;;;;;;;21.20;76.90;;;;;;4993387;28;1898;-73
2021/07/10 03:38:46;;;;;;;;;;;21.20;77.00;;;;;;4976689;28;1605;-73
2021/07/10 03:41:14;;;;;;;;;;;21.20;77.00;;;;;;4976234;28;1477;-73
2021/07/10 03:43:40;;;;;;;;;;;21.20;77.00;;;;;;4976951;28;1221;-73
2021/07/10 03:46:05;;;;;;;;;;;21.20;77.00;;;;;;4976725;28;1444;-73
2021/07/10 03:48:30;;;;;;;;;;;21.20;77.00;;;;;;4976725;28;1615;-73
2021/07/10 03:50:56;;;;;;;;;;;21.20;77.00;;;;;;4976830;28;1622;-73
2021/07/10 03:53:22;;;;;;;;;;;21.20;77.00;;;;;;4993909;28;1387;-72
2021/07/10 03:55:48;;;;;;;;;;;21.20;77.00;;;;;;4975509;28;1479;-72
2021/07/10 03:58:14;;;;;;;;;;;21.20;77.00;;;;;;4993274;28;1973;-72
2021/07/10 04:00:39;;;;;;;;;;;21.20;77.00;;;;;;4993798;28;1849;-72
2021/07/10 04:03:05;;;;;;;;;;;21.20;77.00;;;;;;4993428;28;1347;-72
2021/07/10 04:05:31;;;;;;;;;;;21.20;77.00;;;;;;4992818;28;1467;-72
2021/07/10 04:07:57;;;;;;;;;;;21.20;77.00;;;;;;4993549;28;1645;-72
2021/07/10 04:10:22;;;;;;;;;;;21.20;77.00;;;;;;4993732;28;1451;-72
2021/07/10 04:12:47;;;;;;;;;;;21.20;77.00;;;;;;4993650;28;1271;-71
2021/07/10 04:15:14;;;;;;;;;;;21.20;77.00;;;;;;4992930;28;1436;-72
2021/07/10 04:17:39;;;;;;;;;;;21.20;77.00;;;;;;4993555;28;1906;-72
2021/07/10 04:20:06;;;;;;;;;;;21.20;77.00;;;;;;4975973;28;1276;-72
2021/07/10 04:22:31;;;;;;;;;;;21.20;77.00;;;;;;4976194;28;836;-72
2021/07/10 04:24:56;;;;;;;;;;;21.20;77.00;;;;;;4976131;28;1279;-72
2021/07/10 04:27:22;;;;;;;;;;;21.20;77.00;;;;;;4982867;28;1442;-72
2021/07/10 04:29:48;;;;;;;;;;;21.20;77.00;;;;;;4993319;28;1246;-72
2021/07/10 04:32:17;;;;;;;;;;;21.20;77.00;;;;;;4975983;28;1239;-72
2021/07/10 04:34:42;;;;;;;;;;;21.20;77.00;;;;;;4976228;28;772;-72
2021/07/10 04:37:08;;;;;;;;;;;21.20;77.00;;;;;;4993506;28;2230;-72
2021/07/10 04:39:33;;;;;;;;;;;21.20;77.00;;;;;;4993213;28;1388;-72
2021/07/10 04:41:59;;;;;;;;;;;21.20;77.00;;;;;;4975463;28;1730;-72
2021/07/10 04:44:24;;;;;;;;;;;21.20;77.00;;;;;;4992613;28;1741;-73
2021/07/10 04:46:50;;;;;;;;;;;21.20;77.00;;;;;;4992028;28;1669;-73
2021/07/10 04:49:15;;;;;;;;;;;21.20;77.00;;;;;;4992992;28;1433;-74
2021/07/10 04:51:41;;;;;;;;;;;21.20;77.00;;;;;;4992880;28;1630;-74
2021/07/10 04:54:06;;;;;;;;;;;21.20;77.00;;;;;;4992379;28;895;-74
2021/07/10 04:56:32;;;;;;;;;;;21.20;77.00;;;;;;4992778;28;1961;-73
2021/07/10 04:58:57;;;;;;;;;;;21.20;77.00;;;;;;4975697;28;1670;-72
2021/07/10 05:01:23;;;;;;;;;;;21.20;77.00;;;;;;4975206;28;1252;-72
2021/07/10 05:03:48;;;;;;;;;;;21.10;77.00;;;;;;4974908;28;1285;-73
2021/07/10 05:06:13;;;;;;;;;;;21.20;77.00;;;;;;4992524;28;1377;-72
2021/07/10 05:08:39;;;;;;;;;;;21.20;77.00;;;;;;4993155;28;1347;-73
2021/07/10 05:11:04;;;;;;;;;;;21.20;77.00;;;;;;4975435;28;1673;-72
2021/07/10 05:13:30;;;;;;;;;;;21.20;77.00;;;;;;4975842;28;1596;-73
2021/07/10 05:15:55;;;;;;;;;;;21.20;77.00;;;;;;4992230;28;1636;-73
2021/07/10 05:18:20;;;;;;;;;;;21.20;77.00;;;;;;4975242;28;1899;-72
2021/07/10 05:20:46;;;;;;;;;;;21.20;77.00;;;;;;4992597;28;1371;-72
2021/07/10 05:23:12;;;;;;;;;;;21.20;77.00;;;;;;4992776;28;1093;-73
2021/07/10 05:25:37;;;;;;;;;;;21.20;77.00;;;;;;4992192;28;1061;-72
2021/07/10 05:28:03;;;;;;;;;;;21.20;77.00;;;;;;4992853;28;1458;-73
2021/07/10 05:30:28;;;;;;;;;;;21.20;77.00;;;;;;4993144;28;1308;-72
2021/07/10 05:32:54;;;;;;;;;;;21.20;77.00;;;;;;4992283;28;1380;-72
2021/07/10 05:35:22;;;;;;;;;;;21.20;77.10;;;;;;4991897;28;1618;-73
2021/07/10 05:37:47;;;;;;;;;;;21.20;77.00;;;;;;4992817;28;1898;-72
2021/07/10 05:40:13;;;;;;;;;;;21.20;77.00;;;;;;4974894;28;1412;-72
2021/07/10 05:42:38;;;;;;;;;;;21.20;77.00;;;;;;4974926;28;1395;-72
2021/07/10 05:45:04;;;;;;;;;;;21.20;77.00;;;;;;4992053;28;1671;-72
2021/07/10 05:47:29;;;;;;;;;;;21.20;77.00;;;;;;4994529;28;1390;-72
2021/07/10 05:49:54;;;;;;;;;;;21.20;77.00;;;;;;4962135;28;1507;-72
2021/07/10 05:52:20;;;;;;;;;;;21.20;77.10;;;;;;4996088;28;1062;-72
2021/07/10 05:54:45;;;;;;;;;;;21.10;77.00;;;;;;4995282;28;1417;-74
2021/07/10 05:57:11;;;;;;;;;;;21.20;77.00;;;;;;4995411;28;1906;-74
2021/07/10 05:59:36;;;;;;;;;;;21.20;77.00;;;;;;4978813;28;1436;-75
2021/07/10 06:02:06;;;;;;;;;;;21.20;77.00;;;;;;4978238;28;1725;-74
2021/07/10 06:04:32;;;;;;;;;;;21.20;77.00;;;;;;4995352;28;1557;-74
2021/07/10 06:06:58;;;;;;;;;;;21.20;77.00;;;;;;4959242;28;1507;-74
2021/07/10 06:09:23;;;;;;;;;;;21.20;77.10;;;;;;4995063;28;1480;-74
2021/07/10 06:11:48;;;;;;;;;;;21.20;77.00;;;;;;4982179;28;1278;-74
2021/07/10 06:14:14;;;;;;;;;;;21.20;77.00;;;;;;4995270;28;1411;-74
2021/07/10 06:16:39;;;;;;;;;;;21.20;77.00;;;;;;4994374;28;1910;-74
2021/07/10 06:19:05;;;;;;;;;;;21.20;77.00;;;;;;4993755;28;1660;-72
2021/07/10 06:21:31;;;;;;;;;;;21.20;77.00;;;;;;4994952;28;1334;-72
2021/07/10 06:23:57;;;;;;;;;;;21.20;77.00;;;;;;4976699;28;1508;-72
2021/07/10 06:26:22;;;;;;;;;;;21.20;77.00;;;;;;4977925;28;1372;-72
2021/07/10 06:28:49;;;;;;;;;;;21.10;77.00;;;;;;4995353;28;1680;-73
2021/07/10 06:31:18;;;;;;;;;;;21.20;77.00;;;;;;4976374;28;1397;-76
2021/07/10 06:33:44;;;;;;;;;;;21.20;77.00;;;;;;4983240;28;1472;-73
2021/07/10 06:36:09;;;;;;;;;;;21.20;77.80;;;;;;4993667;28;899;-74
2021/07/10 06:38:35;;;;;;;;;;;21.20;77.00;;;;;;4976771;28;1915;-73
2021/07/10 06:41:00;;;;;;;;;;;21.20;77.00;;;;;;4961356;28;1456;-76
2021/07/10 06:43:25;;;;;;;;;;;21.20;77.00;;;;;;4994611;28;975;-74
2021/07/10 06:45:51;;;;;;;;;;;21.20;77.00;;;;;;4994324;28;1204;-73
2021/07/10 06:48:16;;;;;;;;;;;21.10;76.90;;;;;;4977090;28;1137;-73
2021/07/10 06:50:42;;;;;;;;;;;21.20;76.90;;;;;;4973184;28;2005;-74
2021/07/10 06:53:07;;;;;;;;;;;21.20;76.90;;;;;;4988465;28;2414;-72
2021/07/10 06:55:33;;;;;;;;;;;21.20;76.90;;;;;;4994072;28;1373;-72
2021/07/10 06:57:58;;;;;;;;;;;21.20;76.90;;;;;;4992880;28;1961;-72
2021/07/10 07:00:24;;;;;;;;;;;21.20;76.90;;;;;;4976898;28;1228;-72
2021/07/10 07:02:49;;;;;;;;;;;21.20;76.90;;;;;;4994516;28;1587;-73
2021/07/10 07:05:15;;;;;;;;;;;21.20;76.90;;;;;;4993666;28;1676;-72
2021/07/10 07:07:40;;;;;;;;;;;21.20;76.90;;;;;;4994385;28;1411;-73
2021/07/10 07:10:06;;;;;;;;;;;21.20;76.90;;;;;;4976899;28;1401;-72
2021/07/10 07:12:32;;;;;;;;;;;21.20;76.90;;;;;;4964412;28;1702;-72
2021/07/10 07:14:58;;;;;;;;;;;21.20;77.60;;;;;;4976329;28;1481;-71
2021/07/10 07:17:23;;;;;;;;;;;21.20;77.60;;;;;;4976767;28;1907;-72
2021/07/10 07:19:48;;;;;;;;;;;21.20;76.90;;;;;;4957690;28;1674;-72
2021/07/10 07:22:14;;;;;;;;;;;21.20;76.80;;;;;;4993707;28;1558;-73
2021/07/10 07:24:39;;;;;;;;;;;21.20;76.90;;;;;;4993286;28;1450;-71
2021/07/10 07:27:05;;;;;;;;;;;21.20;76.90;;;;;;4994414;28;1730;-72
2021/07/10 07:29:30;;;;;;;;;;;21.20;76.90;;;;;;4980601;28;1433;-73
2021/07/10 07:31:56;;;;;;;;;;;21.20;76.90;;;;;;4992351;28;1511;-72
2021/07/10 07:34:21;;;;;;;;;;;21.20;76.90;;;;;;4992196;28;1845;-72
2021/07/10 07:36:46;;;;;;;;;;;21.20;76.80;;;;;;4994099;28;1894;-72
2021/07/10 07:39:12;;;;;;;;;;;21.20;76.90;;;;;;4994324;28;1373;-72
2021/07/10 07:41:37;;;;;;;;;;;21.20;76.90;;;;;;4993957;28;1738;-72
2021/07/10 07:44:03;;;;;;;;;;;21.20;76.90;;;;;;4993305;28;1671;-73
2021/07/10 07:46:29;;;;;;;;;;;21.20;76.90;;;;;;4976095;28;1744;-72
2021/07/10 07:48:54;;;;;;;;;;;21.20;76.80;;;;;;4993822;28;1439;-72
2021/07/10 07:51:19;;;;;;;;;;;21.20;76.90;;;;;;4993588;28;1628;-73
2021/07/10 07:53:45;;;;;;;;;;;21.20;76.90;;;;;;4993751;28;1595;-72
2021/07/10 07:56:10;;;;;;;;;;;21.20;76.80;;;;;;4992995;28;1675;-72
2021/07/10 07:58:36;;;;;;;;;;;21.20;76.80;;;;;;4960275;28;1970;-72
2021/07/10 08:01:01;;;;;;;;;;;21.20;76.80;;;;;;4993512;28;1692;-73
2021/07/10 08:03:27;;;;;;;;;;;21.20;76.90;;;;;;4976531;28;1200;-72
2021/07/10 08:05:52;;;;;;;;;;;21.20;76.80;;;;;;4992851;28;1711;-73
2021/07/10 08:08:18;;;;;;;;;;;21.20;76.90;;;;;;4993308;28;1660;-73
2021/07/10 08:10:43;;;;;;;;;;;21.20;76.90;;;;;;4992613;28;1396;-73
2021/07/10 08:13:09;;;;;;;;;;;21.20;76.90;;;;;;4975874;28;1735;-73
2021/07/10 08:15:34;;;;;;;;;;;21.20;76.90;;;;;;4992996;28;1314;-73
2021/07/10 08:17:59;;;;;;;;;;;21.20;76.90;;;;;;4993095;28;1914;-72
2021/07/10 08:20:25;;;;;;;;;;;21.20;76.90;;;;;;4993164;28;1711;-73
2021/07/10 08:22:50;;;;;;;;;;;21.20;76.90;;;;;;4992941;28;1394;-71
2021/07/10 08:25:17;;;;;;;;;;;21.20;76.90;;;;;;4992788;28;1660;-73
2021/07/10 08:27:42;;;;;;;;;;;21.20;76.90;;;;;;4975682;28;1499;-73
2021/07/10 08:30:08;;;;;;;;;;;21.20;76.90;;;;;;4975846;28;1725;-72
2021/07/10 08:32:33;;;;;;;;;;;21.20;76.90;;;;;;4975315;28;1537;-71
2021/07/10 08:34:59;;;;;;;;;;;21.10;76.90;;;;;;4975193;28;1586;-71
2021/07/10 08:37:24;;;;;;;;;;;21.20;77.00;;;;;;4993045;28;1899;-71
2021/07/10 08:39:50;;;;;;;;;;;21.20;77.00;;;;;;4993452;28;1712;-71
2021/07/10 08:42:15;;;;;;;;;;;21.20;76.90;;;;;;4992647;28;1475;-72
2021/07/10 08:44:41;;;;;;;;;;;21.20;76.90;;;;;;4975100;28;1681;-71
2021/07/10 08:47:13;;;;;;;;;;;21.20;76.90;;;;;;4976176;28;1682;-71
2021/07/10 08:49:39;;;;;;;;;;;21.20;76.90;;;;;;4975663;28;1499;-72
2021/07/10 08:52:04;;;;;;;;;;;21.20;76.90;;;;;;4992631;28;1721;-72
2021/07/10 08:54:30;;;;;;;;;;;21.20;76.90;;;;;;4987365;28;2011;-73
2021/07/10 08:56:55;;;;;;;;;;;21.20;76.90;;;;;;4992400;28;1966;-72
2021/07/10 08:59:20;;;;;;;;;;;21.20;76.90;;;;;;4992922;28;1492;-72
2021/07/10 09:01:46;;;;;;;;;;;21.20;77.00;;;;;;4974539;28;1449;-72
2021/07/10 09:04:11;;;;;;;;;;;21.20;76.90;;;;;;4991979;28;1341;-72
2021/07/10 09:06:37;;;;;;;;;;;21.20;76.90;;;;;;4992224;28;1727;-72
2021/07/10 09:09:03;;;;;;;;;;;21.20;76.90;;;;;;4992483;28;1342;-73
2021/07/10 09:11:29;;;;;;;;;;;21.20;76.80;;;;;;4973038;28;1568;-72
2021/07/10 09:13:55;;;;;;;;;;;21.20;76.90;;;;;;4991196;28;1356;-72
2021/07/10 09:16:24;;;;;;;;;;;21.20;76.90;;;;;;4973719;28;1238;-72
2021/07/10 09:18:54;;;;;;;;;;;21.20;76.90;;;;;;5015369;23;2067;-68
2021/07/10 09:21:37;;;;;;;;;;;21.20;76.90;;;;;;4973784;28;1319;-68
2021/07/10 09:24:05;;;;;;;;;;;21.20;76.80;;;;;;5011742;28;1904;-67
2021/07/10 09:26:30;;;;;;;;;;;21.20;76.80;;;;;;4994123;28;2165;-68
2021/07/10 09:28:58;;;;;;;;;;;21.20;76.80;;;;;;4993157;28;1379;-68
2021/07/10 09:31:25;;;;;;;;;;;21.20;76.80;;;;;;4990386;28;1198;-67
2021/07/10 09:33:57;;;;;;;;;;;21.20;76.90;;;;;;4975439;28;1285;-67
2021/07/10 09:36:23;;;;;;;;;;;21.20;76.90;;;;;;4994775;28;1300;-68
2021/07/10 09:38:53;;;;;;;;;;;21.20;76.90;;;;;;4994261;28;1911;-68
2021/07/10 09:41:22;;;;;;;;;;;21.20;76.90;;;;;;4995864;28;1400;-68
2021/07/10 09:43:48;;;;;;;;;;;21.20;76.90;;;;;;4996074;28;1455;-69
2021/07/10 09:46:14;;;;;;;;;;;21.20;76.80;;;;;;4995541;28;1681;-69
2021/07/10 09:48:40;;;;;;;;;;;21.20;76.90;;;;;;4978341;28;1398;-66
2021/07/10 09:51:19;;;;;;;;;;;21.20;76.90;;;;;;4978364;28;1676;-67
2021/07/10 09:54:01;;;;;;;;;;;21.20;76.80;;;;;;4979046;28;1362;-66
2021/07/10 09:56:27;;;;;;;;;;;21.20;76.80;;;;;;4992883;28;2393;-67
2021/07/10 09:58:52;;;;;;;;;;;21.20;76.80;;;;;;4990750;28;1588;-66
2021/07/10 10:01:30;;;;;;;;;;;21.20;76.80;;;;;;4996089;28;1332;-68
2021/07/10 10:03:56;;;;;;;;;;;21.20;76.80;;;;;;4978456;28;1391;-66
2021/07/10 10:06:31;;;;;;;;;;;21.20;76.80;;;;;;4995394;28;1511;-67
2021/07/10 10:08:57;;;;;;;;;;;21.20;76.80;;;;;;4992690;28;1545;-65
2021/07/10 10:11:22;;;;;;;;;;;21.20;76.80;;;;;;4978308;28;1754;-66
2021/07/10 10:13:48;;;;;;;;;;;21.20;76.80;;;;;;4995744;28;1490;-65
2021/07/10 10:16:14;;;;;;;;;;;21.20;76.80;;;;;;4995114;28;1356;-66
2021/07/10 10:18:42;;;;;;;;;;;21.20;76.80;;;;;;4995167;28;1977;-67
2021/07/10 10:21:07;;;;;;;;;;;21.20;76.80;;;;;;4995110;28;1781;-67
2021/07/10 10:23:33;;;;;;;;;;;21.20;76.80;;;;;;4995293;28;1446;-68
2021/07/10 10:25:58;;;;;;;;;;;21.20;76.90;;;;;;4977356;28;1371;-68
2021/07/10 10:28:23;;;;;;;;;;;21.20;77.60;;;;;;4977653;28;1509;-67
2021/07/10 10:30:49;;;;;;;;;;;21.20;76.80;;;;;;4977351;28;2068;-67
2021/07/10 10:33:15;;;;;;;;;;;21.20;76.80;;;;;;4992434;28;1378;-67
2021/07/10 10:35:40;;;;;;;;;;;21.20;76.80;;;;;;4978430;28;1442;-67
2021/07/10 10:38:05;;;;;;;;;;;21.20;76.80;;;;;;4976446;28;1969;-66
2021/07/10 10:40:31;;;;;;;;;;;21.20;76.80;;;;;;4976424;28;1418;-67
2021/07/10 10:42:57;;;;;;;;;;;21.20;76.80;;;;;;4993750;28;1332;-67
2021/07/10 10:45:29;;;;;;;;;;;21.20;76.80;;;;;;4977209;28;1717;-68
2021/07/10 10:47:54;;;;;;;;;;;21.20;76.80;;;;;;4995097;28;1754;-67
2021/07/10 10:50:20;;;;;;;;;;;21.20;76.80;;;;;;4977564;28;1627;-66
2021/07/10 10:52:46;;;;;;;;;;;21.20;76.80;;;;;;4994546;28;1681;-67
2021/07/10 10:55:16;;;;;;;;;;;21.20;76.80;;;;;;4976682;28;1644;-67
2021/07/10 10:57:42;;;;;;;;;;;21.20;76.80;;;;;;4977090;28;1906;-67
2021/07/10 11:00:14;;;;;;;;;;;21.20;76.80;;;;;;4977597;28;1729;-68
2021/07/10 11:02:40;;;;;;;;;;;21.20;76.80;;;;;;4994066;28;1438;-68
2021/07/10 11:05:06;;;;;;;;;;;21.20;76.80;;;;;;4993519;28;1168;-67
2021/07/10 11:07:36;;;;;;;;;;;21.20;76.90;;;;;;4993322;28;1626;-68
2021/07/10 11:10:17;;;;;;;;;;;21.20;76.80;;;;;;4994520;28;1771;-68
2021/07/10 11:12:45;;;;;;;;;;;21.20;76.90;;;;;;4982688;28;1090;-67
2021/07/10 11:15:26;;;;;;;;;;;21.20;76.80;;;;;;4993660;28;1665;-67
2021/07/10 11:17:52;;;;;;;;;;;21.20;76.90;;;;;;4994152;28;1959;-67
2021/07/10 11:20:36;;;;;;;;;;;21.20;76.90;;;;;;4977356;28;1680;-67
2021/07/10 11:23:01;;;;;;;;;;;21.20;76.80;;;;;;4994602;28;1662;-67
2021/07/10 11:25:45;;;;;;;;;;;21.20;76.80;;;;;;4994423;28;1424;-68
2021/07/10 11:28:13;;;;;;;;;;;21.20;76.80;;;;;;4991200;28;2064;-66
2021/07/10 11:30:45;;;;;;;;;;;21.20;76.80;;;;;;4992039;28;1441;-67
2021/07/10 11:33:11;;;;;;;;;;;21.20;76.80;;;;;;4972827;28;1713;-67
2021/07/10 11:35:37;;;;;;;;;;;21.20;76.80;;;;;;4993330;28;1461;-68
2021/07/10 11:38:03;;;;;;;;;;;21.20;76.80;;;;;;4993961;28;1965;-67
2021/07/10 11:40:40;;;;;;;;;;;21.20;76.80;;;;;;4991546;28;1510;-67
2021/07/10 11:43:07;;;;;;;;;;;21.20;76.80;;;;;;4991701;28;1648;-67
2021/07/10 11:45:32;;;;;;;;;;;21.20;76.80;;;;;;4992395;28;1568;-66
2021/07/10 11:47:59;;;;;;;;;;;21.20;76.80;;;;;;4993355;28;1425;-67
2021/07/10 11:50:28;;;;;;;;;;;21.20;76.80;;;;;;4994073;28;1648;-67
2021/07/10 11:53:01;;;;;;;;;;;21.20;76.80;;;;;;4976547;28;1659;-67
2021/07/10 11:55:27;;;;;;;;;;;21.20;76.80;;;;;;4992748;28;1658;-67
2021/07/10 11:57:53;;;;;;;;;;;21.20;76.80;;;;;;4993372;28;1906;-67
2021/07/10 12:00:18;;;;;;;;;;;21.20;76.80;;;;;;4993533;28;1671;-68
2021/07/10 12:02:44;;;;;;;;;;;21.20;76.80;;;;;;4993248;28;1369;-67
2021/07/10 12:05:10;;;;;;;;;;;21.20;76.80;;;;;;4992627;28;1041;-68
2021/07/10 12:07:37;;;;;;;;;;;21.20;76.80;;;;;;4993218;28;1277;-68
2021/07/10 12:10:03;;;;;;;;;;;21.20;76.80;;;;;;4975546;28;1145;-68
2021/07/10 12:12:29;;;;;;;;;;;21.20;76.80;;;;;;4992939;28;1155;-68
2021/07/10 12:14:55;;;;;;;;;;;21.20;76.80;;;;;;4992309;28;1093;-68
2021/07/10 12:17:21;;;;;;;;;;;21.20;76.70;;;;;;4993040;28;1957;-69
2021/07/10 12:19:47;;;;;;;;;;;21.20;76.70;;;;;;4992681;28;1141;-68
2021/07/10 12:22:12;;;;;;;;;;;21.20;76.70;;;;;;4992865;28;1216;-68
2021/07/10 12:24:38;;;;;;;;;;;21.20;76.70;;;;;;4992018;28;1136;-68
2021/07/10 12:27:13;;;;;;;;;;;21.20;76.70;;;;;;4992971;28;1212;-68
2021/07/10 12:29:49;;;;;;;;;;;21.20;77.50;;;;;;4993116;28;1100;-68
2021/07/10 12:32:14;;;;;;;;;;;21.20;77.00;;;;;;4974352;28;1150;-67
2021/07/10 12:34:50;;;;;;;;;;;21.20;76.90;;;;;;4973373;28;1160;-67
2021/07/10 12:37:25;;;;;;;;;;;21.20;76.90;;;;;;4992331;28;1956;-67
2021/07/10 12:39:50;;;;;;;;;;;21.20;76.90;;;;;;4974319;28;1242;-66
2021/07/10 12:42:16;;;;;;;;;;;21.20;76.90;;;;;;4980896;28;1515;-65
2021/07/10 12:44:41;;;;;;;;;;;21.20;76.80;;;;;;4991432;28;1117;-64
2021/07/10 12:47:08;;;;;;;;;;;21.20;76.80;;;;;;4991866;28;1277;-65
2021/07/10 12:49:37;;;;;;;;;;;21.20;76.80;;;;;;4991512;28;1082;-65
2021/07/10 12:52:04;;;;;;;;;;;21.20;76.80;;;;;;4992981;28;1105;-67
2021/07/10 12:54:33;;;;;;;;;;;21.20;76.80;;;;;;4974181;28;1181;-66
2021/07/10 12:57:00;;;;;;;;;;;21.20;76.80;;;;;;4990588;28;2194;-65
2021/07/10 12:59:26;;;;;;;;;;;21.20;76.80;;;;;;4993825;28;1415;-65
2021/07/10 13:01:51;;;;;;;;;;;21.20;76.80;;;;;;4995880;28;1116;-65
2021/07/10 13:04:17;;;;;;;;;;;21.20;76.80;;;;;;4994926;28;1117;-64
2021/07/10 13:06:43;;;;;;;;;;;21.20;76.80;;;;;;4996509;28;1066;-64
2021/07/10 13:09:08;;;;;;;;;;;21.20;76.80;;;;;;4978257;28;1374;-64
2021/07/10 13:11:44;;;;;;;;;;;21.20;76.80;;;;;;4996036;28;1144;-65
2021/07/10 13:14:17;;;;;;;;;;;21.20;76.80;;;;;;4995043;28;1042;-66
2021/07/10 13:16:43;;;;;;;;;;;21.20;76.80;;;;;;4978349;28;1985;-67
2021/07/10 13:19:08;;;;;;;;;;;21.20;76.80;;;;;;4977799;28;1331;-66
2021/07/10 13:21:34;;;;;;;;;;;21.20;76.80;;;;;;4995751;28;998;-66
2021/07/10 13:24:09;;;;;;;;;;;21.20;76.80;;;;;;4995297;28;1125;-65
2021/07/10 13:26:35;;;;;;;;;;;21.20;76.80;;;;;;4995235;28;1100;-67
2021/07/10 13:29:04;;;;;;;;;;;21.20;76.80;;;;;;4977801;28;1226;-64
2021/07/10 13:31:30;;;;;;;;;;;21.20;76.80;;;;;;4995397;28;1109;-66
2021/07/10 13:33:56;;;;;;;;;;;21.20;76.80;;;;;;4995335;28;1061;-63
2021/07/10 13:36:32;;;;;;;;;;;21.20;76.80;;;;;;4977555;28;1158;-62
2021/07/10 13:39:06;;;;;;;;;;;21.20;77.60;;;;;;4995345;28;2025;-63
2021/07/10 13:41:31;;;;;;;;;;;21.20;76.80;;;;;;4993305;28;1153;-64
2021/07/10 13:43:57;;;;;;;;;;;21.20;76.80;;;;;;4995049;28;1053;-65
2021/07/10 13:46:42;;;;;;;;;;;21.20;76.80;;;;;;4994898;28;1118;-64
2021/07/10 13:49:22;;;;;;;;;;;21.20;76.80;;;;;;4995564;28;1227;-65
2021/07/10 13:51:49;;;;;;;;;;;21.20;76.80;;;;;;4995493;28;1046;-65
2021/07/10 13:54:27;;;;;;;;;;;21.20;76.80;;;;;;4977256;28;1106;-65
2021/07/10 13:57:11;;;;;;;;;;;21.20;76.80;;;;;;4995646;28;1972;-65
2021/07/10 13:59:37;;;;;;;;;;;21.20;76.80;;;;;;4995735;28;1061;-64
2021/07/10 14:02:03;;;;;;;;;;;21.20;76.80;;;;;;4995863;28;1133;-66
2021/07/10 14:04:29;;;;;;;;;;;21.20;76.80;;;;;;4994600;28;1113;-66
2021/07/10 14:06:54;;;;;;;;;;;21.20;76.80;;;;;;4995746;28;1124;-65
2021/07/10 14:09:19;;;;;;;;;;;21.20;76.80;;;;;;4995093;28;1262;-66
2021/07/10 14:11:45;;;;;;;;;;;21.20;76.80;;;;;;4995676;28;1167;-65
2021/07/10 14:14:10;;;;;;;;;;;21.20;76.70;;;;;;4994899;28;1089;-65
2021/07/10 14:16:36;;;;;;;;;;;21.20;76.80;;;;;;4995328;28;1972;-65
2021/07/10 14:19:01;;;;;;;;;;;21.20;76.80;;;;;;4994920;28;1477;-65
2021/07/10 14:21:27;;;;;;;;;;;21.20;76.80;;;;;;4991939;28;1329;-65
2021/07/10 14:23:52;;;;;;;;;;;21.20;76.80;;;;;;4985993;28;943;-65
2021/07/10 14:26:17;;;;;;;;;;;21.20;76.70;;;;;;4994004;28;1093;-65